Atlanticbeach, North Carolina
Current Conditions -  °F | °C
As of 11:58 PM on Saturday 20 Dec 2014 (Local Time) from KMRH Reporting Station
Overcast Overcast  
Wind Chill: 40°   Ceiling: 6500
Heat Index: 40°   Visibility: 10mi
Dew Point: 36°   Wind: 3mph
Humidity: 86%   Direction: 30°NNE
Pressure: 30.26"   Gusts: NA
Location:  34.6984°N, 76.7775°W
Report Text: KMRH 210458Z AUTO 03003KT 10SM OVC065 04/02 A3026 RMK AO2 SLP246 I1000 T00440022 400720044 TSNO
Loading
Personal Weather Stations






























Interactive Weather Map New forecast layout! Learn more

10-Day Weather Forecast

Advertisements
Track Severe Weather on mobile